x

8447387 - Borden Flats Light At Fall River, Ma (bltm3) Weather Station

1:18 - Fri 18th Aug 2017 All times are EDT. -4 hours from GMT.

  • Wind
    21mph, 28mph gusts
  • Air Temp 76°f
  • Sea Pressure 1011.8mb
  • 8447387 - Borden Flats Light At Fall River, Ma
  • 8447387 - Borden Flats Light At Fall River, Ma

More Historic Weather Station data

Upgrade to MSW Pro to gain access to the past 30 days of data for over 8000 Wavebouys and Weather Stations around the globe.

Join

Comparision Forecast

View Surf forecast
   
ven. 08/18 1:18 21 28 mph 1011.8mb 76f
1:12 22 29 mph 1011.7mb 76f
1:06 16 23 mph 1011.8mb 76f
1:00 18 25 mph 1011.7mb 76f
12:54 16 24 mph 1011.8mb 76f
12:48 17 25 mph 1011.9mb 76f
12:42 17 24 mph 1012mb 76f
12:36 22 32 mph 1012.1mb 76f
12:30 18 24 mph 1012.2mb 76f
12:24 16 26 mph 1012.4mb 76f
12:18 17 24 mph 1012.3mb 76f
12:12 16 22 mph 1012.4mb 76f
12:06 18 24 mph 1012.5mb 76f
12:00 15 21 mph 1012.6mb 76f
11:54 16 22 mph 1012.7mb 76f
11:48 17 23 mph 1012.7mb 76f
11:42 16 23 mph 1012.7mb 76f
11:36 16 22 mph 1012.7mb 76f
11:30 18 28 mph 1012.6mb 76f
11:24 15 24 mph 1012.6mb 76f
11:18 13 20 mph 1012.6mb 76f
11:12 10 14 mph 1012.7mb 76f
11:06 14 18 mph 1012.6mb 75f
11:00 14 18 mph 1012.7mb 75f
10:54 14 18 mph 1012.6mb 75f
10:48 14 18 mph 1012.7mb 75f
10:42 13 22 mph 1012.8mb 76f
10:36 13 17 mph 1012.8mb 76f
10:30 15 20 mph 1012.8mb 76f
10:24 13 17 mph 1012.8mb 76f
10:18 14 20 mph 1012.7mb 75f
10:12 15 22 mph 1012.8mb 75f
10:06 15 20 mph 1012.8mb 75f
10:00 11 16 mph 1012.9mb 75f
9:54 13 17 mph 1012.8mb 74f
9:48 10 14 mph 1012.8mb 74f
9:42 14 21 mph 1012.9mb 74f
9:36 14 20 mph 1012.9mb 74f
9:30 11 15 mph 1012.9mb 74f
9:24 11 15 mph 1013mb 74f
9:18 10 17 mph 1013mb 74f
9:12 9 13 mph 1013mb 74f
9:06 10 14 mph 1013.1mb 73f
9:00 9 13 mph 1013.2mb 73f
8:54 10 16 mph 1013.3mb 73f
8:48 11 15 mph 1013.3mb 73f
8:42 10 14 mph 1013.3mb 73f
8:36 10 15 mph 1013.5mb 73f
8:30 10 14 mph 1013.7mb 73f
8:24 8 13 mph 1013.7mb 73f
8:18 9 13 mph 1013.8mb 73f
8:12 10 14 mph 1013.9mb 73f
8:06 8 11 mph 1014mb 72f
8:00 8 13 mph 1014mb 72f
7:54 9 15 mph 1014.1mb 72f
7:48 7 10 mph 1014mb 72f
7:42 8 10 mph 1014.1mb 72f
7:36 7 10 mph 1014.1mb 72f
7:30 7 10 mph 1014mb 71f
7:24 10 14 mph 1013.9mb 71f
7:18 9 13 mph 1013.9mb 71f
7:12 9 13 mph 1014mb 71f
7:06 9 13 mph 1013.9mb 71f
7:00 10 16 mph 1013.7mb 71f
6:54 10 15 mph 1013.6mb 71f
6:48 10 15 mph 1013.7mb 71f
6:42 10 14 mph 1013.6mb 70f
6:36 11 15 mph 1013.8mb 70f
6:30 8 14 mph 1014mb 70f
6:24 9 13 mph 1014mb 70f
6:18 8 13 mph 1014.1mb 70f
6:12 7 9 mph 1014.1mb 70f
6:06 5 9 mph 1014.1mb 70f
6:00 7 9 mph 1014mb 70f
5:54 9 11 mph 1013.9mb 70f
5:48 7 10 mph 1013.9mb 70f
5:42 6 11 mph 1014mb 70f
5:36 5 6 mph 1014mb 69f
5:30 6 8 mph 1013.9mb 69f
5:24 7 9 mph 1013.8mb 69f
5:18 5 7 mph 1013.7mb 69f
5:12 7 9 mph 1013.6mb 69f
5:06 11 16 mph 1013.4mb 70f
5:00 13 17 mph 1013.3mb 69f
4:54 11 16 mph 1013.3mb 69f
4:48 9 13 mph 1013.4mb 69f
4:42 8 11 mph 1013.5mb 69f
4:36 9 13 mph 1013.6mb 69f
4:30 6 7 mph 1013.9mb 69f
4:24 6 10 mph 1013.9mb 69f
4:18 6 8 mph 1013.9mb 69f
4:12 7 8 mph 1014mb 69f
4:06 5 8 mph 1014mb 69f
4:00 3 5 mph 1014.1mb 69f
3:54 6 8 mph 1014.1mb 69f
3:48 6 7 mph 1014.2mb 69f
3:42 6 7 mph 1014.2mb 69f
3:36 5 7 mph 1014.2mb 69f
3:30 6 8 mph 1014.2mb 69f
3:24 5 7 mph 1014.2mb 69f
3:18 5 7 mph 1014.2mb 69f
3:12 5 8 mph 1014.2mb 69f
3:06 1 6 mph 1014.3mb 69f
3:00 1 2 mph 1014.5mb 69f
2:48 3 5 mph 1014.6mb -
2:42 5 6 mph 1014.7mb -
2:36 2 3 mph 1014.7mb -
2:30 1 2 mph 1014.6mb 69f
2:24 3 5 mph 1014.6mb 69f
2:18 5 5 mph 1014.6mb 68f
2:12 5 5 mph 1014.7mb 68f
2:06 3 5 mph 1014.7mb 68f
2:00 3 5 mph 1014.7mb 68f
1:54 3 5 mph 1014.8mb 68f
1:48 3 5 mph 1014.9mb -
1:42 3 5 mph 1014.8mb -
1:36 6 7 mph 1014.9mb -
1:30 3 5 mph 1014.9mb 69f
1:24 2 3 mph 1015mb 68f
1:18 1 2 mph 1015.1mb 68f
1:12 2 3 mph 1015.1mb 68f
1:06 2 5 mph 1015.2mb 69f
1:00 3 5 mph 1015.2mb 69f
12:54 3 6 mph 1015.2mb 69f
12:48 5 6 mph 1015.3mb 69f
12:42 5 6 mph 1015.3mb 69f
12:36 5 6 mph 1015.3mb 69f
12:30 5 6 mph 1015.5mb 69f
12:24 5 7 mph 1015.6mb 69f
12:18 5 6 mph 1015.6mb 69f
12:12 5 6 mph 1015.6mb 69f
12:06 5 6 mph 1015.6mb 69f
12:00 6 7 mph 1015.6mb 69f
jeu. 08/17 11:48 6 7 mph 1015.5mb 69f
11:42 6 7 mph 1015.5mb 69f
11:36 5 7 mph 1015.4mb 70f
11:30 5 6 mph 1015.5mb 69f
11:24 2 3 mph 1015.6mb 69f
11:18 2 5 mph 1015.6mb 70f
11:12 5 7 mph 1015.6mb 70f
11:06 8 10 mph 1015.6mb 70f
11:00 8 10 mph 1015.5mb 70f
10:54 10 14 mph 1015.5mb 70f
10:48 10 13 mph 1015.5mb 70f
10:42 10 14 mph 1015.4mb 70f
10:36 9 13 mph 1015.5mb 70f
10:30 7 9 mph 1015.5mb 70f
10:24 5 8 mph 1015.5mb 70f
10:18 6 9 mph 1015.5mb 70f
10:12 7 9 mph 1015.4mb 70f
10:06 8 10 mph 1015.4mb 70f
10:00 8 11 mph 1015.4mb 70f
9:30 8 10 mph 1015.5mb 70f
9:24 7 9 mph 1015.5mb 70f
9:18 6 7 mph 1015.5mb 70f
9:12 6 7 mph 1015.5mb 70f
9:06 6 7 mph 1015.5mb 70f
9:00 7 8 mph 1015.4mb 70f
8:54 8 9 mph 1015.4mb 70f
8:48 6 8 mph 1015.3mb 70f
8:42 6 7 mph 1015.3mb 70f
8:36 6 7 mph 1015.3mb 70f
8:30 5 6 mph 1015.2mb 70f
8:24 5 6 mph 1015.2mb 70f
8:18 5 6 mph 1015.2mb 70f
8:12 5 6 mph 1015.1mb 70f
8:06 5 6 mph 1015.1mb 70f
8:00 6 8 mph 1015.1mb 70f
7:54 7 9 mph 1015mb 70f
7:48 6 8 mph 1015mb 71f
7:42 6 9 mph 1015mb 71f
7:36 6 7 mph 1014.9mb 71f
7:30 6 8 mph 1014.9mb 71f
7:24 6 8 mph 1014.8mb 71f
7:18 6 9 mph 1014.8mb 72f
7:12 3 6 mph 1014.8mb 72f
7:06 5 7 mph 1014.7mb 72f
7:00 6 8 mph 1014.7mb 72f
6:54 7 9 mph 1014.6mb 72f
6:48 7 8 mph 1014.7mb 72f
6:42 7 9 mph 1014.7mb 73f
6:36 6 8 mph 1014.8mb 73f
6:30 8 10 mph 1014.8mb 74f
6:24 9 10 mph 1014.8mb 74f
6:18 10 13 mph 1014.7mb 74f
6:12 8 11 mph 1014.7mb 74f
6:06 11 14 mph 1014.6mb 74f
6:00 10 13 mph 1014.6mb 74f
5:54 11 16 mph 1014.6mb 74f
5:48 11 16 mph 1014.7mb 74f
5:42 10 14 mph 1014.7mb 74f
5:36 13 16 mph 1014.7mb 75f
5:30 10 14 mph 1014.7mb 75f
5:24 13 16 mph 1014.6mb 75f
5:18 14 17 mph 1014.6mb 75f
5:12 14 17 mph 1014.6mb 75f
5:06 13 16 mph 1014.6mb 76f
5:00 14 16 mph 1014.6mb 76f
4:54 14 16 mph 1014.5mb 76f
4:48 14 16 mph 1014.5mb 76f
4:42 14 16 mph 1014.5mb 76f
4:36 14 16 mph 1014.6mb 76f
4:30 15 18 mph 1014.6mb 76f
4:24 16 17 mph 1014.5mb 76f
4:18 15 17 mph 1014.5mb 76f
4:12 15 17 mph 1014.6mb 76f
4:06 15 16 mph 1014.5mb 76f
4:00 15 16 mph 1014.5mb 76f
3:54 15 16 mph 1014.6mb 76f
3:48 15 16 mph 1014.7mb 75f
3:42 15 16 mph 1014.7mb 75f
3:36 14 16 mph 1014.8mb 76f
3:30 6 7 mph 1014.8mb 77f
3:24 5 6 mph 1014.9mb 77f
3:18 6 7 mph 1015mb 76f
3:12 6 7 mph 1015.1mb 76f
3:06 9 9 mph 1015mb 76f
3:00 7 8 mph 1015.1mb 76f
2:54 8 9 mph 1015.2mb 76f
2:48 8 9 mph 1015.2mb 76f
2:42 9 9 mph 1015.4mb 76f
2:36 8 9 mph 1015.5mb 76f
2:30 8 9 mph 1015.5mb 76f
2:24 8 9 mph 1015.5mb 76f
2:18 7 9 mph 1015.6mb 75f
2:12 8 9 mph 1015.7mb 75f
2:06 7 8 mph 1015.9mb 75f
2:00 6 7 mph 1016mb 75f
1:54 7 7 mph 1016.1mb 75f
1:48 6 7 mph 1016.1mb 74f
1:42 7 8 mph 1016.1mb 74f
1:36 6 7 mph 1016.2mb 74f
1:30 6 7 mph 1016.3mb 73f
1:24 6 7 mph 1016.3mb 74f
1:18 6 7 mph 1016.3mb 73f
1:12 8 9 mph 1016.4mb 73f
1:06 7 8 mph 1016.4mb 73f
1:00 8 8 mph 1016.5mb 73f
12:54 6 7 mph 1016.6mb 73f
12:48 6 7 mph 1016.6mb 73f
12:42 6 6 mph 1016.6mb 73f
12:36 6 7 mph 1016.5mb 73f
12:30 6 7 mph 1016.5mb 73f
12:24 6 6 mph 1016.6mb 73f
12:18 6 7 mph 1016.7mb 72f
12:12 6 7 mph 1016.7mb 72f
12:06 7 8 mph 1016.8mb 72f
12:00 6 8 mph 1016.8mb 72f
11:54 6 6 mph 1017mb 72f
11:48 6 7 mph 1017.1mb 72f
11:42 6 7 mph 1017.1mb 71f
11:36 5 6 mph 1017.1mb 71f
11:30 5 5 mph 1017.1mb 71f
11:24 5 6 mph 1017.2mb 71f
11:18 3 5 mph 1017.3mb 71f
11:12 2 5 mph 1017.4mb 71f
11:06 2 3 mph 1017.4mb 71f
11:00 5 6 mph 1017.4mb 71f
10:54 2 2 mph 1017.4mb 72f
10:48 1 2 mph 1017.4mb 72f
10:42  -  1 mph 1017.4mb 74f
10:36  -  2 mph 1017.4mb 74f
10:30  -  1 mph 1017.4mb 73f
10:24 3 5 mph 1017.5mb 73f
10:18 2 5 mph 1017.5mb 73f
10:12 5 6 mph 1017.5mb 73f
10:06 6 6 mph 1017.6mb 73f
10:00 6 8 mph 1017.7mb 72f
9:54 6 7 mph 1017.7mb 72f
9:48 7 8 mph 1017.6mb 72f
9:42 7 7 mph 1017.6mb 72f
9:36 6 7 mph 1017.5mb 72f
9:30 3 6 mph 1017.6mb 71f
9:24 3 6 mph 1017.5mb 70f
9:18 3 5 mph 1017.5mb 69f
9:12 1 2 mph 1017.5mb 68f
9:06  -  1 mph 1017.6mb 67f
9:00  -  2 mph 1017.5mb 67f
8:54 1 2 mph 1017.5mb 67f
8:48 1 2 mph 1017.5mb 66f
8:42 2 2 mph 1017.4mb 66f
8:36  -  2 mph 1017.4mb 67f
8:30  -  1 mph 1017.5mb 67f
8:24  -  1 mph 1017.5mb 67f
8:18 1 3 mph 1017.4mb 67f
8:12 3 5 mph 1017.5mb 67f
8:06 3 5 mph 1017.6mb 66f
8:00 3 5 mph 1017.6mb 65f
7:54 2 3 mph 1017.6mb 65f
7:48 2 3 mph 1017.6mb 66f
7:42 2 2 mph 1017.5mb 66f
7:36  -  1 mph 1017.5mb 66f
7:30  -  2 mph 1017.5mb 66f
7:24 2 3 mph 1017.4mb 65f
7:18 2 3 mph 1017.4mb 65f
7:12 2 3 mph 1017.3mb 65f
7:06 2 3 mph 1017.3mb 65f
7:00 2 3 mph 1017.2mb 65f
6:54 2 3 mph 1017.1mb 65f
6:48 2 3 mph 1017.1mb 65f
6:42 3 3 mph 1017.1mb 64f
6:36 5 6 mph 1017mb 64f
6:30 6 6 mph 1016.9mb 64f
6:24 5 6 mph 1016.8mb 64f
6:18 6 7 mph 1016.7mb 64f
6:12 6 7 mph 1016.7mb 65f
6:06 6 7 mph 1016.6mb 65f
6:00 5 6 mph 1016.6mb 65f
5:54 5 7 mph 1016.5mb 65f
5:48 5 6 mph 1016.4mb 65f
5:42 6 7 mph 1016.4mb 65f
5:36 6 6 mph 1016.4mb 65f
5:30 6 8 mph 1016.4mb 65f
5:24 6 6 mph 1016.4mb 65f
5:18 7 8 mph 1016.3mb 65f
5:12 6 7 mph 1016.3mb 65f
5:06 7 8 mph 1016.2mb 65f
5:00 7 9 mph 1016.2mb 65f
4:54 7 8 mph 1016.2mb 66f
4:48 6 8 mph 1016.2mb 66f
4:42 7 8 mph 1016.2mb 66f
4:36 7 8 mph 1016.1mb 66f
4:30 8 10 mph 1016.1mb 66f
4:24 7 9 mph 1016.1mb 67f
4:18 7 9 mph 1016.1mb 67f
4:12 6 8 mph 1016.1mb 67f
4:06 5 6 mph 1016.1mb 67f
4:00 5 6 mph 1016.1mb 67f
3:54 6 7 mph 1016mb 67f
3:48 5 6 mph 1015.8mb 67f
3:42 6 7 mph 1015.8mb 67f
3:36 6 7 mph 1015.6mb 67f
3:30  -  mph 1015.6mb 67f
3:24  -  mph 1015.6mb 67f
3:18 6 8 mph 1015.6mb 67f
3:12 5 6 mph 1015.7mb 67f
3:06 5 6 mph 1015.7mb 67f
3:00 3 6 mph 1015.8mb 67f
2:54 2 3 mph 1015.7mb 68f
2:48 2 3 mph 1015.7mb -
2:42 2 3 mph 1015.6mb -
2:36 3 5 mph 1015.6mb -
2:30 3 3 mph 1015.7mb 69f
2:24 3 5 mph 1015.7mb 69f
2:18 3 5 mph 1015.7mb 69f
2:12 5 6 mph 1015.7mb 69f
2:06 5 5 mph 1015.6mb 69f
2:00 5 6 mph 1015.6mb 69f
1:54 5 6 mph 1015.6mb 69f
1:48 3 5 mph 1015.7mb 69f
1:42 5 6 mph 1015.6mb 69f
1:36 6 6 mph 1015.6mb 69f
1:30 5 7 mph 1015.7mb 70f
1:24 6 6 mph 1015.7mb 70f
1:18 6 7 mph 1015.7mb 70f
1:12 6 7 mph 1015.6mb 70f
1:06 7 8 mph 1015.7mb 70f
1:00 7 8 mph 1015.6mb 70f
12:54 7 8 mph 1015.6mb 70f
12:48 7 8 mph 1015.5mb 70f
12:42 7 10 mph 1015.5mb 70f
12:36 7 8 mph 1015.5mb 71f
12:30 8 10 mph 1015.5mb 71f
12:24 9 11 mph 1015.4mb 71f
12:18 9 13 mph 1015.4mb 71f
12:12 10 13 mph 1015.4mb 71f
12:06 10 13 mph 1015.3mb 71f
12:00 9 10 mph 1015.3mb 72f
mer. 08/16 11:54 9 10 mph 1015.2mb 72f
11:48 8 10 mph 1015.1mb 72f
11:42 8 9 mph 1015.1mb 72f
11:36 7 8 mph 1015.1mb 72f
11:30 7 8 mph 1015.1mb 72f
11:24 6 7 mph 1015mb 72f
11:18 6 6 mph 1015.1mb 72f
11:12 6 6 mph 1015mb 73f
11:06 5 6 mph 1015mb 73f
11:00 3 3 mph 1015.1mb 73f
10:54 3 5 mph 1015.1mb 73f
10:48 5 5 mph 1015mb 74f
10:42 2 3 mph 1014.9mb 74f
10:36 2 3 mph 1014.9mb 74f
10:30 2 3 mph 1014.8mb 74f
10:24 3 6 mph 1014.8mb 74f
10:18 2 3 mph 1014.7mb 75f
10:12 3 5 mph 1014.8mb 75f
10:06 3 5 mph 1014.7mb 75f
10:00 3 6 mph 1014.7mb 75f
9:54 5 7 mph 1014.6mb 75f
9:48 3 5 mph 1014.4mb 74f
9:42 3 5 mph 1014.4mb 75f
9:36 2 3 mph 1014.4mb 76f
9:30 3 3 mph 1014.3mb 76f
9:24 1 3 mph 1014.2mb 76f
9:18 2 3 mph 1014.1mb 76f
9:12 5 6 mph 1014mb 76f
9:06 5 6 mph 1014mb 76f
9:00 6 7 mph 1013.9mb 76f
8:54 7 9 mph 1014mb 76f
8:48 7 8 mph 1013.9mb 76f
8:42 6 6 mph 1013.9mb 77f
8:36 6 8 mph 1013.8mb 78f
8:30 6 7 mph 1013.7mb 78f
8:24 5 8 mph 1013.7mb 77f
8:18 6 7 mph 1013.6mb 78f
8:12 7 8 mph 1013.5mb 77f
8:06 6 8 mph 1013.5mb 77f
8:00 6 8 mph 1013.4mb 77f
7:54 7 9 mph 1013.4mb 78f
7:48 3 6 mph 1013.3mb 79f
7:42 6 6 mph 1013.2mb 80f
7:36 6 6 mph 1013.1mb 81f
7:30 6 7 mph 1013mb 81f
7:24 7 8 mph 1013mb 82f
7:18 7 8 mph 1013mb 82f
7:12 6 9 mph 1012.9mb 82f
7:06 8 13 mph 1012.9mb 82f
7:00 8 11 mph 1012.7mb 83f
6:54 7 9 mph 1012.6mb 83f
6:48 8 9 mph 1012.5mb 83f
6:42 7 8 mph 1012.5mb 83f
6:36 7 9 mph 1012.5mb 83f
6:30 9 11 mph 1012.4mb 83f
6:24 8 10 mph 1012.3mb 84f
6:18 8 10 mph 1012.3mb 84f
6:12 9 10 mph 1012.3mb 84f
6:06 10 14 mph 1012.3mb 84f
6:00 10 13 mph 1012.1mb 85f
5:54 9 13 mph 1012.1mb 85f
5:48 8 11 mph 1012mb 86f
5:42 9 11 mph 1012mb 86f
5:36 8 10 mph 1012mb 86f
5:30 9 11 mph 1011.9mb 85f
5:24 9 11 mph 1011.9mb 85f
5:18 10 13 mph 1011.9mb 86f
5:12 10 13 mph 1011.9mb 85f
5:06 8 13 mph 1011.8mb 85f
5:00 3 7 mph 1011.7mb 87f
4:54 5 8 mph 1011.8mb 86f
4:48 9 13 mph 1011.8mb 86f
4:42 8 9 mph 1011.8mb 86f
4:36 9 13 mph 1011.8mb 87f
4:30 6 9 mph 1011.8mb 86f
4:24 6 8 mph 1011.8mb 86f
4:18 6 8 mph 1011.8mb 86f
4:12 6 8 mph 1011.8mb 87f
4:06 13 14 mph 1011.8mb 86f
4:00 6 10 mph 1011.8mb 86f
3:54 6 7 mph 1011.9mb 86f
3:48 3 6 mph 1012mb 87f
3:42 7 8 mph 1012mb 86f
3:36 9 11 mph 1012mb 85f
3:30 13 15 mph 1012mb 84f
3:24 7 11 mph 1011.9mb 85f
3:18 5 8 mph 1011.9mb 86f
3:12 8 10 mph 1012mb 86f
3:06 6 14 mph 1012mb 86f
3:00 3 9 mph 1012mb 86f
2:54 11 15 mph 1012.1mb 85f
2:48 9 10 mph 1012.2mb 85f
2:42 10 15 mph 1012.1mb 85f
2:36 7 13 mph 1012.2mb 85f
2:30 13 15 mph 1012.1mb 84f
2:24 11 16 mph 1012mb 84f
2:18 9 13 mph 1012.1mb 84f
2:12 9 13 mph 1012.2mb 85f
2:06 10 14 mph 1012.2mb 84f
2:00 9 14 mph 1012.2mb 85f
1:54 7 13 mph 1012.2mb 85f
1:48 9 16 mph 1012.2mb 86f
1:42 6 9 mph 1012.3mb 85f
1:36 10 15 mph 1012.3mb 84f
1:30 10 16 mph 1012.3mb 84f
1:24 9 14 mph 1012.4mb 83f
1:18 11 15 mph 1012.3mb 83f
1:12 8 11 mph 1012.4mb 83f
1:06 8 10 mph 1012.4mb 83f
1:00 9 11 mph 1012.3mb 83f
12:54 8 14 mph 1012.3mb 83f
12:48 9 10 mph 1012.3mb 82f
12:42 14 18 mph 1012.2mb 82f
12:36 9 13 mph 1012.2mb 82f
12:30 10 14 mph 1012.2mb 82f
12:24 11 17 mph 1012.2mb 82f
12:18 11 15 mph 1012.3mb 82f
12:12 10 13 mph 1012.2mb 82f
12:06 9 14 mph 1012.1mb 82f
12:00 11 18 mph 1012mb 81f
11:54 14 17 mph 1012.1mb 81f
11:48 11 17 mph 1012mb 81f
11:42 10 14 mph 1012mb 81f
11:36 11 17 mph 1012mb 81f
11:30 15 18 mph 1012mb 80f
11:24 14 17 mph 1012mb 80f
11:18 11 16 mph 1012.1mb 80f
11:12 14 16 mph 1012.2mb 80f
11:06 15 18 mph 1012.1mb 80f
11:00 14 17 mph 1012.1mb 80f
10:54 14 16 mph 1012.1mb 79f
10:48 13 18 mph 1012mb 79f
10:42 11 15 mph 1012.1mb 79f
10:36 14 16 mph 1012.2mb 79f
10:30 11 15 mph 1012.2mb 78f
10:24 11 16 mph 1012.1mb 78f
10:18 14 18 mph 1012.1mb 78f
10:12 15 20 mph 1012.1mb 78f
10:06 14 17 mph 1012mb 77f
10:00 15 18 mph 1012.1mb 77f
9:54 14 17 mph 1012.2mb 77f
9:48 14 20 mph 1012.1mb 77f
9:42 14 20 mph 1012.1mb 76f
9:36 14 17 mph 1012.1mb 76f
9:30 10 14 mph 1012.1mb 76f
9:24 10 14 mph 1012.1mb 75f
9:18 10 14 mph 1012.1mb 75f
9:12 7 11 mph 1012.1mb 74f
9:06 9 11 mph 1012.1mb 74f
9:00 9 13 mph 1012.1mb 74f
8:54 7 9 mph 1012.1mb 73f
8:48 9 13 mph 1012.2mb 73f
8:42 9 11 mph 1012.2mb 73f
8:36 9 13 mph 1012.2mb 73f
8:30 10 14 mph 1012.2mb 72f
8:24 11 14 mph 1012.2mb 72f
8:18 8 13 mph 1012.2mb 71f
8:12 8 9 mph 1012.2mb 71f
8:06 9 11 mph 1012.2mb 71f
8:00 7 10 mph 1012.2mb 71f
7:54 8 9 mph 1012.2mb 70f
7:48 7 10 mph 1012.2mb 70f
7:42 8 9 mph 1012.3mb 70f
7:36 7 8 mph 1012.3mb 70f
7:30 7 8 mph 1012.3mb 70f
7:24 8 10 mph 1012.3mb 69f
7:18 7 9 mph 1012.3mb 70f
7:12 8 9 mph 1012.3mb 69f
7:06 7 9 mph 1012mb 69f
7:00 8 9 mph 1012mb 69f
6:54 7 8 mph 1012mb 69f
6:48 7 8 mph 1012mb 69f
6:42 7 8 mph 1012mb 70f
6:36 6 8 mph 1012mb 70f
6:30 6 7 mph 1012mb 70f
6:24 7 8 mph 1012mb 70f
6:18 8 10 mph 1011.9mb 70f
6:12 7 9 mph 1011.9mb 70f
6:06 8 9 mph 1011.8mb 70f
6:00 8 9 mph 1011.8mb 70f
5:54 8 9 mph 1011.7mb 70f
5:48 8 10 mph 1011.7mb 70f
5:42 9 10 mph 1011.6mb 69f
5:36 9 10 mph 1011.5mb 69f
5:30 8 9 mph 1011.5mb 69f
5:24 7 8 mph 1011.4mb 69f
5:18 8 9 mph 1011.5mb 69f
5:12 8 10 mph 1011.5mb 69f
5:06 7 9 mph 1011.4mb 69f
5:00 7 9 mph 1011.5mb 69f
4:54 10 11 mph 1011.4mb 69f
4:48 8 10 mph 1011.4mb 69f
4:42 8 10 mph 1011.3mb 69f
4:36 9 10 mph 1011.5mb 69f
4:30 9 10 mph 1011.5mb 69f
4:24 8 9 mph 1011.5mb 69f
4:18 9 10 mph 1011.4mb 69f
4:12 8 9 mph 1011.4mb 69f
4:06 8 10 mph 1011.5mb 69f
4:00 8 9 mph 1011.5mb 69f
3:54 8 9 mph 1011.5mb 69f
3:48 8 9 mph 1011.5mb 69f
3:42 8 10 mph 1011.5mb 69f
3:36 9 11 mph 1011.6mb 69f
3:30 10 13 mph 1011.6mb 69f
3:24 10 13 mph 1011.6mb 69f
3:18 13 16 mph 1011.7mb 69f
3:12 11 14 mph 1011.5mb 69f
3:06 11 14 mph 1011.6mb 69f
3:00 11 14 mph 1011.7mb 69f
2:54 10 13 mph 1011.5mb 69f
2:48 10 11 mph 1011.5mb 69f
2:42 10 13 mph 1011.4mb 69f
2:36 9 10 mph 1011.4mb 69f
2:30 10 10 mph 1011.3mb 69f
2:24 10 13 mph 1011.3mb 69f
2:18 11 14 mph 1011.1mb 69f
2:12 10 13 mph 1011.1mb 70f
2:06 10 13 mph 1011.1mb 70f
2:00 10 11 mph 1011.2mb 70f
1:54 10 11 mph 1011.2mb 70f
1:48 9 10 mph 1011.2mb 70f
1:42 9 11 mph 1011.1mb 69f
1:36 9 10 mph 1011.1mb 69f
1:30 8 10 mph 1011.1mb 69f
1:24 8 9 mph 1011.1mb 70f
1:18 9 11 mph 1011.1mb 70f
1:12 8 10 mph 1011.2mb 70f
1:06 9 10 mph 1011.3mb 70f
1:00 8 9 mph 1011.2mb 70f
12:54 8 10 mph 1011.2mb 70f
12:48 9 11 mph 1011.1mb 70f
12:42 8 10 mph 1011.1mb 69f
12:36 7 8 mph 1011.1mb 69f
12:30 6 8 mph 1011mb 69f
12:24 7 8 mph 1011mb 69f
12:18 7 9 mph 1011mb 69f
12:12 7 8 mph 1011.1mb 70f
12:06 7 9 mph 1011.2mb 69f
12:00 7 9 mph 1011.3mb 69f
mar. 08/15 11:54 8 10 mph 1011.3mb 70f
11:48 8 9 mph 1011.2mb 70f
11:42 7 8 mph 1011.3mb 70f
11:36 8 9 mph 1011.3mb 70f
11:30  -  mph 1011.2mb 70f
11:24  -  mph 1011.3mb 70f
11:18 7 8 mph 1011.3mb 70f
11:12 9 11 mph 1011.3mb 70f
11:06 9 11 mph 1011.3mb 71f
11:00 9 10 mph 1011.4mb 71f
10:54 8 9 mph 1011.5mb 71f
10:48 8 9 mph 1011.6mb 71f
10:42 8 9 mph 1011.7mb 71f
10:36 8 9 mph 1011.7mb 71f
10:30 9 10 mph 1011.7mb 71f
10:24 9 10 mph 1011.7mb 71f
10:18 10 13 mph 1011.7mb 71f
10:12 11 13 mph 1011.6mb 71f
10:06 11 13 mph 1011.5mb 71f
10:00 10 13 mph 1011.5mb 71f
9:54 10 14 mph 1011.6mb 71f
9:48 8 10 mph 1011.7mb 71f
9:42 10 13 mph 1011.7mb 71f
9:36 11 14 mph 1011.6mb 71f
9:30 9 11 mph 1011.8mb 71f
9:24 8 10 mph 1011.9mb 71f
9:18 8 10 mph 1011.9mb 71f
9:12 9 11 mph 1011.9mb 71f
9:06 9 11 mph 1012mb 71f
9:00 9 10 mph 1012.1mb 71f
8:54 8 10 mph 1012.1mb 71f
8:48 9 10 mph 1012mb 71f
8:42 9 11 mph 1011.9mb 71f
8:36 9 10 mph 1011.9mb 71f
8:30 9 11 mph 1011.9mb 71f
8:24 9 10 mph 1012mb 71f
8:18 9 11 mph 1012.1mb 71f
8:12 9 10 mph 1012.1mb 71f
8:06 9 11 mph 1012.2mb 71f
8:00 9 10 mph 1012.1mb 71f
7:54 9 10 mph 1012.2mb 71f
7:48 8 9 mph 1012.2mb 71f
7:42 8 10 mph 1012.2mb 71f
7:36 7 9 mph 1012.1mb 71f
7:30 9 14 mph 1012.1mb 71f
7:24 10 15 mph 1012.1mb 71f
7:18 8 10 mph 1012.1mb 71f
7:12 10 14 mph 1012.1mb 72f
7:06 10 11 mph 1012mb 72f
7:00 8 10 mph 1012.2mb 72f
6:54 13 15 mph 1012.2mb 72f
6:48 11 14 mph 1012.3mb 72f
6:42 10 14 mph 1012.4mb 72f
6:36 8 11 mph 1012.4mb 72f
6:30 9 11 mph 1012.3mb 71f
6:24 8 10 mph 1012.1mb 71f
6:18 6 9 mph 1012.1mb 71f
6:12 7 9 mph 1012mb 71f
6:06 8 10 mph 1012.1mb 71f
6:00 9 13 mph 1012.3mb 71f
5:54 9 15 mph 1012.3mb 71f
5:48 8 11 mph 1012.1mb 71f
5:42 9 10 mph 1012mb 71f
5:36 8 11 mph 1011.9mb 71f
5:30 10 15 mph 1012mb 71f
5:24 11 14 mph 1012mb 71f
5:18 11 15 mph 1012.1mb 71f
5:12 8 13 mph 1012mb 71f
5:06 9 13 mph 1011.9mb 72f
5:00 6 11 mph 1011.9mb 72f
4:54 8 11 mph 1011.9mb 72f
4:48 7 9 mph 1011.9mb 72f
4:42 10 14 mph 1011.7mb 72f
4:36 10 14 mph 1011.8mb 72f
4:30 9 11 mph 1012.2mb 73f
4:24 10 13 mph 1012.1mb 73f
4:18 10 13 mph 1012mb 73f
4:12 10 11 mph 1012.2mb 73f
4:06 9 11 mph 1012.2mb 73f
4:00 9 11 mph 1012.1mb 73f
3:54 11 14 mph 1012.1mb 73f
3:48 10 13 mph 1012.1mb 73f
3:42 10 13 mph 1012.1mb 73f
3:36 10 13 mph 1012.2mb 73f
3:30 11 14 mph 1012.2mb 74f
3:24 13 15 mph 1012.2mb 74f
3:18 10 13 mph 1012.2mb 74f
3:12 11 14 mph 1012.2mb 74f
3:06 14 17 mph 1012.3mb 74f
3:00 14 17 mph 1012.1mb 74f
2:54 15 18 mph 1012.1mb 74f
2:48 14 17 mph 1012.1mb 75f
2:42 13 15 mph 1012.1mb 75f
2:36 14 17 mph 1012.1mb 75f
2:30 14 16 mph 1012.1mb 75f
2:24 13 16 mph 1012mb 75f
2:18 13 15 mph 1012.2mb 76f
2:12 13 16 mph 1012.2mb 76f
2:06 13 16 mph 1012.2mb 76f
2:00 11 14 mph 1012.3mb 76f
1:54 13 16 mph 1012.3mb 76f
1:48 13 17 mph 1012.3mb 77f
1:42 13 15 mph 1012.1mb 77f
1:36 13 14 mph 1012.2mb 76f
1:30 10 13 mph 1012.2mb 77f
1:24 9 10 mph 1012.1mb 76f
1:18 8 9 mph 1012.3mb 76f
1:12 8 9 mph 1012.3mb 76f
1:06 5 6 mph 1012.3mb 76f
1:00 3 5 mph 1012.2mb 76f
12:54 3 5 mph 1012.2mb 76f
12:48 5 6 mph 1012.3mb 76f
12:42 6 6 mph 1012.4mb 76f
12:36 6 7 mph 1012.4mb 76f
12:30 7 8 mph 1012.4mb 76f
12:24 7 8 mph 1012.4mb 76f
12:18 7 7 mph 1012.5mb 76f
12:12 7 8 mph 1012.5mb 76f
12:06 8 10 mph 1012.7mb 76f
12:00 8 9 mph 1012.6mb 75f
11:54 3 5 mph 1012.5mb 75f
11:48 6 7 mph 1012.7mb 74f
11:42 5 6 mph 1012.7mb 74f
11:36 3 6 mph 1012.6mb 74f
11:30 7 8 mph 1012.8mb 74f
11:24 7 8 mph 1012.7mb 74f
11:18 5 6 mph 1012.8mb 74f
11:12 7 8 mph 1013mb 73f
11:06 7 8 mph 1013mb 73f
11:00 7 8 mph 1013.1mb 73f
10:54 6 7 mph 1013.1mb 73f
10:48 5 6 mph 1013mb 73f
10:42 5 6 mph 1013.1mb 73f
10:36 6 6 mph 1013.2mb 73f
10:30 6 7 mph 1013.4mb 72f
10:24 6 6 mph 1013.5mb 73f
10:18 7 8 mph 1013.5mb 72f
10:12 8 9 mph 1013.5mb 72f
10:06 10 11 mph 1013.6mb 72f
10:00 11 13 mph 1013.6mb 72f
9:54 10 11 mph 1013.6mb 72f
9:48 11 13 mph 1013.6mb 72f
9:42 11 13 mph 1013.5mb 71f
9:36 13 14 mph 1013.5mb 71f
9:30 11 13 mph 1013.4mb 72f
9:24 9 11 mph 1013.5mb 72f
9:18 8 10 mph 1013.4mb 72f
9:12 11 13 mph 1013.4mb 71f
9:06 9 10 mph 1013.4mb 71f
9:00 9 10 mph 1013.5mb 71f
8:54 8 9 mph 1013.4mb 71f
8:48 7 8 mph 1013.3mb 71f
8:42 6 7 mph 1013.3mb 71f
8:36 7 8 mph 1013.4mb 71f
8:30 7 8 mph 1013.5mb 72f
8:24 5 7 mph 1013.4mb 71f
8:18 5 6 mph 1013.4mb 72f
8:12 5 6 mph 1013.4mb 71f
8:06 6 7 mph 1013.4mb 71f
8:00 6 8 mph 1013.5mb 71f
7:54 6 8 mph 1013.5mb 72f
7:48 8 9 mph 1013.6mb 72f
7:42 7 9 mph 1013.5mb 71f
7:36 9 10 mph 1013.7mb 71f
7:30 6 7 mph 1013.5mb 71f
7:24 5 7 mph 1013.4mb 72f
7:18 9 10 mph 1013.4mb 71f
7:12 8 10 mph 1013.5mb 71f
7:06 9 10 mph 1013.5mb 71f
7:00 7 9 mph 1013.5mb 71f
6:54 7 8 mph 1013.4mb 71f
6:48 7 9 mph 1013.4mb 71f
6:42 6 7 mph 1013.4mb 71f
6:36 7 9 mph 1013.4mb 71f
6:30 9 10 mph 1013.5mb 71f
6:24 6 7 mph 1013.6mb 71f
6:18 5 7 mph 1013.5mb 71f
6:12 5 7 mph 1013.4mb 71f
6:06 6 7 mph 1013.4mb 71f
6:00 5 7 mph 1013.4mb 71f
5:54 6 7 mph 1013.5mb 71f
5:48 6 7 mph 1013.6mb 72f
5:42 5 7 mph 1013.5mb 72f
5:36 7 8 mph 1013.5mb 72f
5:30 8 9 mph 1013.6mb 72f
5:24 8 8 mph 1013.5mb 71f
5:18 8 8 mph 1013.4mb 71f
5:12 9 11 mph 1013.4mb 71f
5:06 6 8 mph 1013.6mb 71f
5:00 6 7 mph 1013.3mb 71f
4:54 7 9 mph 1013.4mb 71f
4:48 6 7 mph 1013.5mb 71f
4:42 7 8 mph 1013.7mb 72f
4:36 7 8 mph 1013.6mb 71f
4:30 6 6 mph 1013.4mb 71f
4:24 6 7 mph 1013.6mb 71f
4:18 5 6 mph 1013.5mb 71f
4:12 5 6 mph 1013.4mb 71f
4:06 5 6 mph 1013.6mb 71f
4:00 6 8 mph 1013.7mb 71f
3:54 6 6 mph 1013.5mb 71f
3:48 5 6 mph 1013.4mb 71f
3:42 6 6 mph 1013.4mb 71f
3:36 5 6 mph 1013.3mb 71f
3:30 5 6 mph 1013.3mb 71f
3:24 3 5 mph 1013.3mb 71f
3:18 2 3 mph 1013.3mb 71f
3:12 3 5 mph 1013.3mb 71f
3:06 3 5 mph 1013.3mb 71f
3:00 3 5 mph 1013.3mb 71f
2:54 2 5 mph 1013.2mb 71f
2:48 3 6 mph 1013.1mb -
2:42 3 5 mph 1013.4mb -
2:36 3 5 mph 1013.5mb -
2:30 3 5 mph 1013.4mb 71f
2:24 3 5 mph 1013.4mb 71f
2:18 5 6 mph 1013.4mb 71f
2:12 2 3 mph 1013.4mb 71f
2:06 2 3 mph 1013.4mb 71f
2:00 2 3 mph 1013.4mb 71f
1:54 2 3 mph 1013.5mb 71f
1:48 2 3 mph 1013.6mb 71f
1:42 3 5 mph 1013.6mb 71f
1:36 5 6 mph 1013.6mb 71f
1:30 5 6 mph 1013.5mb 71f
1:24 5 6 mph 1013.6mb 71f
1:18 5 6 mph 1013.6mb 71f
1:12 5 6 mph 1013.7mb 71f
1:06 5 6 mph 1013.7mb 71f
1:00 3 5 mph 1013.8mb 71f
12:54 2 3 mph 1013.8mb 71f
12:48 2 3 mph 1013.8mb 71f
12:42 5 6 mph 1013.9mb 71f
12:36 3 5 mph 1014mb 71f
12:30 3 5 mph 1014.1mb 71f
12:24 3 5 mph 1014.1mb 71f
12:18 5 5 mph 1014.1mb 71f
12:12 5 7 mph 1014.1mb 71f
12:06 5 7 mph 1014.2mb 71f
12:00 5 6 mph 1014.1mb 71f
lun. 08/14 11:54 5 6 mph 1014.1mb 71f
11:48 5 6 mph 1014.1mb 71f
11:42 5 6 mph 1014.2mb 71f
11:36 6 7 mph 1014.1mb 71f
11:30 5 6 mph 1014.2mb 71f
11:24 5 6 mph 1014.2mb 71f
11:18 3 5 mph 1014.2mb 71f
11:12 3 5 mph 1014.3mb 71f
11:06 2 3 mph 1014.3mb 71f
11:00 3 5 mph 1014.4mb 71f
10:54 3 3 mph 1014.5mb 71f
10:48 3 5 mph 1014.5mb 71f
10:42 3 5 mph 1014.4mb 71f
10:36 5 6 mph 1014.4mb 71f
10:30 3 5 mph 1014.5mb 71f
10:24 5 6 mph 1014.5mb 71f
10:18 6 7 mph 1014.4mb 71f
10:12 3 5 mph 1014.4mb 71f
10:06 5 6 mph 1014.6mb 71f
10:00 6 7 mph 1014.6mb 72f
9:54 6 7 mph 1014.5mb 72f
9:48 5 6 mph 1014.4mb 72f
9:42 5 6 mph 1014.4mb 72f
9:36 3 3 mph 1014.5mb 72f
9:30 3 5 mph 1014.5mb 72f
9:24 3 5 mph 1014.5mb 72f
9:18 2 3 mph 1014.3mb 72f
9:12 2 3 mph 1014.5mb 73f
9:06 3 6 mph 1014.4mb 73f
9:00 2 5 mph 1014.3mb 73f
8:54 3 6 mph 1014.4mb 73f
8:48 2 5 mph 1014.4mb 73f
7:54 2 5 mph 1014.5mb 74f
7:48 5 7 mph 1014.3mb 74f
7:42 5 7 mph 1014.3mb 75f
7:36 3 6 mph 1014.1mb 75f
7:30 5 8 mph 1014.3mb 75f
7:24 5 8 mph 1014.2mb 75f
7:18 2 6 mph 1014.2mb 75f
7:12 3 5 mph 1014.2mb 75f
7:06 6 8 mph 1014.2mb 76f
7:00 7 8 mph 1014.3mb 75f
6:54 6 7 mph 1014.3mb 76f
6:48 7 9 mph 1014.2mb 76f
6:42 7 8 mph 1014.2mb 76f
6:36 6 7 mph 1014.2mb 76f
6:30 7 8 mph 1014.2mb 76f
6:24 8 10 mph 1014.1mb 76f